createdAt,value
2023-02-14T00:01:33.313Z,40.10
2023-02-14T00:04:01.693Z,34.70
2023-02-14T00:06:35.241Z,32.20
2023-02-14T00:09:03.368Z,32.40
2023-02-14T00:11:31.627Z,30.50
2023-02-14T00:14:18.755Z,32.80
2023-02-14T00:16:46.741Z,34.60
2023-02-14T00:19:16.578Z,34.50
2023-02-14T00:21:45.114Z,31.50
2023-02-14T00:24:19.052Z,31.60
2023-02-14T00:26:46.993Z,31.60
2023-02-14T00:29:18.278Z,31.10
2023-02-14T00:31:46.629Z,31.30
2023-02-14T00:34:16.220Z,32.70
2023-02-14T00:36:44.748Z,30.20
2023-02-14T00:39:14.453Z,30.50
2023-02-14T00:41:43.082Z,28.10
2023-02-14T00:44:12.702Z,30.30
2023-02-14T00:46:41.699Z,26.80
2023-02-14T00:49:09.661Z,30.30
2023-02-14T00:51:37.566Z,31.10
2023-02-14T00:54:06.324Z,34.00
2023-02-14T00:56:34.203Z,32.30
2023-02-14T00:59:02.586Z,30.40
2023-02-14T01:01:30.336Z,32.00
2023-02-14T01:03:59.418Z,28.30
2023-02-14T01:06:27.318Z,31.70
2023-02-14T01:08:55.151Z,33.90
2023-02-14T01:11:24.450Z,29.00
2023-02-14T01:13:55.610Z,30.90
2023-02-14T01:16:26.359Z,27.80
2023-02-14T01:18:54.497Z,30.80
2023-02-14T01:21:33.519Z,26.60
2023-02-14T01:24:05.351Z,28.40
2023-02-14T01:26:35.162Z,27.80
2023-02-14T01:29:04.876Z,25.00
2023-02-14T01:31:35.366Z,27.20
2023-02-14T01:34:04.471Z,29.40
2023-02-14T01:36:36.858Z,25.40
2023-02-14T01:39:12.337Z,26.30
2023-02-14T01:41:41.944Z,25.40
2023-02-14T01:44:17.014Z,25.10
2023-02-14T01:46:45.997Z,26.90
2023-02-14T01:49:29.879Z,26.90
2023-02-14T01:57:07.051Z,27.70
2023-02-14T01:59:39.132Z,26.50
2023-02-14T02:02:08.032Z,27.10
2023-02-14T02:04:39.941Z,25.20
2023-02-14T02:07:12.425Z,26.40
2023-02-14T02:09:52.764Z,26.50
2023-02-14T02:12:21.195Z,27.50
2023-02-14T02:14:52.885Z,26.60
2023-02-14T02:17:23.403Z,23.90
2023-02-14T02:20:32.809Z,24.40
2023-02-14T02:23:09.591Z,24.30
2023-02-14T02:26:08.965Z,25.90
2023-02-14T02:29:01.718Z,22.30
2023-02-14T02:32:12.409Z,25.50
2023-02-14T02:35:28.688Z,25.30
2023-02-14T02:38:14.989Z,24.20
2023-02-14T02:41:05.490Z,26.80
2023-02-14T02:43:51.566Z,24.90
2023-02-14T02:47:11.775Z,27.10
2023-02-14T02:50:21.616Z,25.70
2023-02-14T02:53:17.132Z,23.20
2023-02-14T02:56:27.336Z,24.60
2023-02-14T02:59:00.556Z,25.90
2023-02-14T03:01:36.651Z,26.70
2023-02-14T03:04:29.093Z,27.00
2023-02-14T03:06:59.298Z,22.70
2023-02-14T03:09:27.066Z,25.60
2023-02-14T03:12:31.892Z,26.50
2023-02-14T03:15:11.642Z,24.60
2023-02-14T03:17:53.856Z,23.20
2023-02-14T03:20:41.079Z,25.00
2023-02-14T03:23:20.639Z,21.40
2023-02-14T03:26:05.432Z,24.00
2023-02-14T03:29:01.184Z,24.50
2023-02-14T03:31:52.055Z,25.40
2023-02-14T03:34:35.049Z,23.60
2023-02-14T03:37:12.940Z,22.80
2023-02-14T03:39:47.121Z,24.00
2023-02-14T03:42:27.300Z,26.30
2023-02-14T03:44:56.850Z,26.20
2023-02-14T03:47:29.753Z,26.40
2023-02-14T03:50:02.534Z,25.60
2023-02-14T03:52:32.603Z,29.10
2023-02-14T03:55:04.767Z,23.50
2023-02-14T03:57:48.098Z,25.10
2023-02-14T04:00:18.439Z,23.50
2023-02-14T04:02:56.313Z,23.80
2023-02-14T04:05:27.863Z,25.60
2023-02-14T04:07:58.027Z,24.90
2023-02-14T04:10:27.167Z,24.30
2023-02-14T04:12:55.018Z,26.80
2023-02-14T04:15:23.299Z,24.20
2023-02-14T04:18:10.755Z,24.90
2023-02-14T04:20:38.599Z,25.40
2023-02-14T04:23:06.411Z,26.30
2023-02-14T04:25:34.318Z,24.80
2023-02-14T04:28:02.619Z,23.00
2023-02-14T04:30:31.450Z,24.20
2023-02-14T04:32:59.260Z,23.70
2023-02-14T04:35:27.107Z,26.10
2023-02-14T04:37:54.975Z,25.70
2023-02-14T04:40:22.925Z,25.80
2023-02-14T04:42:51.231Z,27.70
2023-02-14T04:45:20.010Z,26.30
2023-02-14T04:47:48.077Z,28.20
2023-02-14T04:50:16.012Z,25.40
2023-02-14T04:52:43.870Z,27.40
2023-02-14T04:55:12.528Z,28.90
2023-02-14T04:57:41.674Z,27.00
2023-02-14T05:00:10.072Z,26.00
2023-02-14T05:02:38.249Z,29.20
2023-02-14T05:05:06.645Z,29.10
2023-02-14T05:07:34.897Z,26.90
2023-02-14T05:10:04.320Z,30.00
2023-02-14T05:12:32.227Z,26.70
2023-02-14T05:15:00.049Z,28.10
2023-02-14T05:17:27.880Z,26.90
2023-02-14T05:19:56.850Z,28.10
2023-02-14T05:22:24.649Z,28.20
2023-02-14T05:24:52.541Z,25.60
2023-02-14T05:27:20.375Z,29.30
2023-02-14T05:29:48.272Z,28.10
2023-02-14T05:32:16.088Z,26.20
2023-02-14T05:34:43.901Z,26.60
2023-02-14T05:37:11.850Z,33.50
2023-02-14T05:39:39.617Z,40.20
2023-02-14T05:44:35.803Z,28.70
2023-02-14T05:47:03.968Z,28.50
2023-02-14T05:49:31.997Z,27.40
2023-02-14T05:51:59.859Z,27.40
2023-02-14T05:54:27.728Z,26.80
2023-02-14T05:56:58.458Z,30.70
2023-02-14T05:59:26.214Z,29.90
2023-02-14T06:01:54.005Z,28.40
2023-02-14T06:04:22.053Z,27.50
2023-02-14T06:06:49.865Z,27.80
2023-02-14T06:09:18.713Z,28.30
2023-02-14T06:11:46.586Z,30.10
2023-02-14T06:14:14.549Z,29.30
2023-02-14T06:16:42.494Z,27.40
2023-02-14T06:19:10.595Z,30.50
2023-02-14T06:21:38.356Z,30.70
2023-02-14T06:24:06.527Z,30.90
2023-02-14T06:26:36.143Z,30.00
2023-02-14T06:29:04.620Z,27.80
2023-02-14T06:31:32.716Z,30.10
2023-02-14T06:34:00.602Z,30.40
2023-02-14T06:36:28.513Z,30.70
2023-02-14T06:38:56.532Z,31.30
2023-02-14T06:41:24.453Z,32.40
2023-02-14T06:43:52.318Z,37.20
2023-02-14T06:46:20.946Z,35.60
2023-02-14T06:48:48.788Z,29.80
2023-02-14T06:51:16.595Z,31.90
2023-02-14T06:53:44.601Z,31.30
2023-02-14T06:56:12.503Z,33.90
2023-02-14T06:58:40.526Z,34.30
2023-02-14T07:01:08.614Z,33.60
2023-02-14T07:03:36.455Z,33.10
2023-02-14T07:06:04.437Z,32.80
2023-02-14T07:08:32.209Z,33.50
2023-02-14T07:11:00.291Z,32.20
2023-02-14T07:13:28.501Z,30.60
2023-02-14T07:15:56.794Z,30.00
2023-02-14T07:18:24.637Z,32.30
2023-02-14T07:20:52.698Z,32.60
2023-02-14T07:23:20.658Z,31.20
2023-02-14T07:25:48.528Z,34.30
2023-02-14T07:28:16.289Z,38.10
2023-02-14T07:30:44.202Z,34.20
2023-02-14T07:33:13.210Z,31.00
2023-02-14T07:35:40.988Z,28.10
2023-02-14T07:38:08.820Z,38.40
2023-02-14T07:40:36.619Z,34.50
2023-02-14T07:43:04.425Z,32.90
2023-02-14T07:45:32.240Z,33.30
2023-02-14T07:48:02.265Z,28.30
2023-02-14T07:50:30.594Z,32.50
2023-02-14T07:52:58.368Z,31.70
2023-02-14T07:55:26.218Z,31.10
2023-02-14T07:57:53.978Z,34.20
2023-02-14T08:00:22.158Z,29.70
2023-02-14T08:02:50.049Z,31.50
2023-02-14T08:05:18.027Z,30.30
2023-02-14T08:07:48.664Z,30.90
2023-02-14T08:10:17.032Z,29.90
2023-02-14T08:12:59.860Z,29.00
2023-02-14T08:15:54.036Z,29.60
2023-02-14T08:18:27.399Z,29.90
2023-02-14T08:20:55.243Z,31.40
2023-02-14T08:23:23.102Z,29.70
2023-02-14T08:25:52.503Z,30.30
2023-02-14T08:28:23.261Z,36.20
2023-02-14T08:30:51.640Z,30.90
2023-02-14T08:33:20.293Z,31.60
2023-02-14T08:35:48.740Z,32.70
2023-02-14T08:38:16.541Z,29.10
2023-02-14T08:40:44.813Z,32.60
2023-02-14T08:43:13.370Z,28.90
2023-02-14T08:45:41.368Z,30.40
2023-02-14T08:48:11.685Z,32.50
2023-02-14T08:50:40.377Z,30.10
2023-02-14T08:53:11.276Z,32.00
2023-02-14T08:55:40.218Z,30.30
2023-02-14T08:58:08.261Z,30.40
2023-02-14T09:00:36.242Z,31.40
2023-02-14T09:03:04.641Z,27.70
2023-02-14T09:05:34.283Z,30.80
2023-02-14T09:08:03.567Z,28.80
2023-02-14T09:10:31.857Z,32.20
2023-02-14T09:12:59.626Z,30.00
2023-02-14T09:15:27.506Z,33.80
2023-02-14T09:17:55.348Z,31.20
2023-02-14T09:20:23.406Z,33.90
2023-02-14T09:22:51.630Z,29.70
2023-02-14T09:25:19.495Z,33.10
2023-02-14T09:27:54.880Z,34.90
2023-02-14T09:30:25.211Z,30.40
2023-02-14T09:32:53.801Z,31.30
2023-02-14T09:35:21.715Z,33.70
2023-02-14T09:37:49.612Z,32.40
2023-02-14T09:40:20.323Z,30.30
2023-02-14T09:42:53.708Z,30.10
2023-02-14T09:45:25.072Z,30.10
2023-02-14T09:47:56.200Z,30.50
2023-02-14T09:50:34.758Z,30.20
2023-02-14T09:53:15.195Z,32.60
2023-02-14T09:55:59.676Z,32.10
2023-02-14T09:58:46.080Z,29.10
2023-02-14T10:01:34.109Z,29.40
2023-02-14T10:04:04.695Z,30.40
2023-02-14T10:07:12.294Z,29.70
2023-02-14T10:09:43.356Z,26.40
2023-02-14T10:12:21.178Z,29.40
2023-02-14T10:14:51.535Z,29.40
2023-02-14T10:17:33.267Z,34.70
2023-02-14T10:20:07.223Z,34.60
2023-02-14T10:22:43.323Z,30.50
2023-02-14T10:25:48.767Z,31.90
2023-02-14T10:28:31.547Z,23.80
2023-02-14T10:31:05.945Z,26.70
2023-02-14T10:33:39.436Z,26.90
2023-02-14T10:36:23.847Z,25.50
2023-02-14T10:39:11.212Z,25.60
2023-02-14T10:41:42.435Z,28.70
2023-02-14T10:44:39.218Z,33.50
2023-02-14T10:47:25.574Z,35.30
2023-02-14T10:50:22.043Z,32.40
2023-02-14T10:52:59.221Z,29.20
2023-02-14T10:55:50.782Z,27.30
2023-02-14T10:58:22.302Z,24.70
2023-02-14T11:01:22.520Z,27.40
2023-02-14T11:04:04.244Z,48.30
2023-02-14T11:06:33.069Z,41.00
2023-02-14T11:09:00.948Z,35.00
2023-02-14T11:11:41.139Z,26.60
2023-02-14T11:14:47.592Z,27.80
2023-02-14T11:17:31.690Z,29.40
2023-02-14T11:20:02.648Z,27.70
2023-02-14T11:22:32.886Z,26.70
2023-02-14T11:25:27.154Z,29.40
2023-02-14T11:28:01.663Z,30.20
2023-02-14T11:30:37.192Z,29.40
2023-02-14T11:33:05.629Z,29.80
2023-02-14T11:35:34.677Z,30.00
2023-02-14T11:38:06.302Z,29.80
2023-02-14T11:40:37.012Z,31.60
2023-02-14T11:43:14.201Z,37.50
2023-02-14T11:45:46.308Z,30.70
2023-02-14T11:48:35.189Z,29.40
2023-02-14T11:51:07.532Z,31.60
2023-02-14T11:53:47.455Z,33.00
2023-02-14T11:56:17.739Z,27.10
2023-02-14T11:59:00.851Z,29.30
2023-02-14T12:01:35.155Z,28.40
2023-02-14T12:04:18.875Z,34.70
2023-02-14T12:06:47.362Z,32.60
2023-02-14T12:09:25.183Z,49.40
2023-02-14T12:12:04.721Z,41.00
2023-02-14T12:14:35.489Z,54.80
2023-02-14T12:17:19.405Z,34.20
2023-02-14T12:23:04.171Z,36.30
2023-02-14T12:25:47.160Z,36.50
2023-02-14T12:28:26.457Z,33.80
2023-02-14T12:30:55.141Z,40.50
2023-02-14T12:33:24.974Z,40.10
2023-02-14T12:36:03.355Z,31.20
2023-02-14T12:38:53.151Z,26.80
2023-02-14T12:41:32.045Z,27.30
2023-02-14T12:44:31.134Z,23.60
2023-02-14T12:47:11.859Z,29.90
2023-02-14T12:50:03.638Z,30.30
2023-02-14T12:53:10.811Z,25.40
2023-02-14T12:56:06.728Z,29.50
2023-02-14T12:58:44.924Z,28.10
2023-02-14T13:01:28.984Z,26.30
2023-02-14T13:04:05.381Z,26.50
2023-02-14T13:06:38.657Z,25.40
2023-02-14T13:09:14.936Z,33.20
2023-02-14T13:12:02.009Z,37.00
2023-02-14T13:14:36.899Z,32.00
2023-02-14T13:17:13.819Z,26.90
2023-02-14T13:19:55.234Z,28.30
2023-02-14T13:22:25.943Z,29.80
2023-02-14T13:25:00.146Z,29.90
2023-02-14T13:27:33.121Z,26.90
2023-02-14T13:30:13.478Z,29.90
2023-02-14T13:32:46.247Z,27.40
2023-02-14T13:35:29.411Z,25.40
2023-02-14T13:38:12.665Z,26.80
2023-02-14T13:40:40.534Z,26.90
2023-02-14T13:43:09.047Z,24.40
2023-02-14T13:45:50.799Z,27.90
2023-02-14T13:48:27.495Z,28.40
2023-02-14T13:51:04.892Z,63.60
2023-02-14T13:53:45.238Z,29.00
2023-02-14T13:56:13.577Z,29.80
2023-02-14T13:58:55.120Z,30.10
2023-02-14T14:01:31.485Z,30.40
2023-02-14T14:04:03.453Z,32.00
2023-02-14T14:07:04.760Z,28.30
2023-02-14T14:09:44.515Z,31.20
2023-02-14T14:12:27.762Z,28.30
2023-02-14T14:15:05.495Z,27.10
2023-02-14T14:17:46.823Z,27.20
2023-02-14T14:20:20.516Z,28.40
2023-02-14T14:22:57.355Z,26.80
2023-02-14T14:25:32.561Z,27.00
2023-02-14T14:28:01.599Z,29.40
2023-02-14T14:30:33.562Z,28.40
2023-02-14T14:33:15.910Z,30.10
2023-02-14T14:35:54.901Z,29.20
2023-02-14T14:38:24.983Z,30.10
2023-02-14T14:40:53.822Z,31.70
2023-02-14T14:43:30.094Z,27.70
2023-02-14T14:46:02.430Z,28.10
2023-02-14T14:48:39.165Z,34.90
2023-02-14T14:51:10.047Z,32.50
2023-02-14T14:53:37.823Z,30.10
2023-02-14T14:59:35.615Z,31.70
2023-02-14T15:02:07.859Z,32.10
2023-02-14T15:04:36.212Z,32.30
2023-02-14T15:07:33.203Z,37.00
2023-02-14T15:10:02.172Z,38.50
2023-02-14T15:12:49.981Z,35.20
2023-02-14T15:15:18.818Z,40.20
2023-02-14T15:17:47.287Z,41.90
2023-02-14T15:20:23.776Z,51.10
2023-02-14T15:22:54.089Z,45.10
2023-02-14T15:25:26.886Z,43.40
2023-02-14T15:27:54.679Z,44.10
2023-02-14T15:30:29.762Z,43.80
2023-02-14T15:32:58.748Z,38.40
2023-02-14T15:35:29.989Z,41.70
2023-02-14T15:38:01.808Z,47.50
2023-02-14T15:40:32.658Z,49.40
2023-02-14T15:43:22.099Z,41.40
2023-02-14T15:45:53.465Z,42.60
2023-02-14T15:48:33.350Z,42.60
2023-02-14T15:51:04.913Z,40.20
2023-02-14T15:53:43.034Z,45.70
2023-02-14T15:56:21.952Z,43.30
2023-02-14T15:58:49.929Z,40.10
2023-02-14T16:01:21.873Z,64.50
2023-02-14T16:03:57.463Z,65.10
2023-02-14T16:06:33.757Z,98.40
2023-02-14T16:09:03.166Z,65.00
2023-02-14T16:11:36.173Z,69.10
2023-02-14T16:14:31.559Z,54.00
2023-02-14T16:17:06.187Z,64.30
2023-02-14T16:19:37.424Z,63.80
2023-02-14T16:22:07.256Z,101.90
2023-02-14T16:24:36.135Z,177.90
2023-02-14T16:27:07.086Z,78.40
2023-02-14T16:29:36.808Z,67.90
2023-02-14T16:32:16.887Z,86.50
2023-02-14T16:34:47.542Z,78.70
2023-02-14T16:37:28.195Z,63.30
2023-02-14T16:39:57.878Z,52.20
2023-02-14T16:42:25.791Z,59.80
2023-02-14T16:44:54.933Z,62.10
2023-02-14T16:47:23.364Z,64.40
2023-02-14T16:49:53.100Z,65.70
2023-02-14T16:52:26.310Z,58.60
2023-02-14T16:54:54.664Z,58.10
2023-02-14T16:57:30.559Z,54.90
2023-02-14T16:59:58.336Z,58.10
2023-02-14T17:02:28.617Z,60.90
2023-02-14T17:04:57.195Z,56.80
2023-02-14T17:07:26.659Z,61.60
2023-02-14T17:09:59.040Z,63.10
2023-02-14T17:12:31.403Z,69.80
2023-02-14T17:15:06.052Z,84.90
2023-02-14T17:17:36.996Z,83.40
2023-02-14T17:20:08.455Z,89.20
2023-02-14T17:22:37.566Z,132.60
2023-02-14T17:25:06.324Z,150.60
2023-02-14T17:27:34.182Z,135.50
2023-02-14T17:30:02.659Z,109.40
2023-02-14T17:32:30.609Z,203.20
2023-02-14T17:34:58.433Z,139.80
2023-02-14T17:37:26.217Z,87.60
2023-02-14T17:39:54.465Z,167.50
2023-02-14T17:42:22.873Z,123.30
2023-02-14T17:44:50.643Z,103.50
2023-02-14T17:47:18.608Z,101.30
2023-02-14T17:49:49.484Z,145.00
2023-02-14T17:52:18.257Z,120.60
2023-02-14T17:54:46.560Z,172.70
2023-02-14T17:57:14.469Z,77.80
2023-02-14T17:59:42.718Z,131.50
2023-02-14T18:02:10.568Z,102.50
2023-02-14T18:04:38.843Z,127.20
2023-02-14T18:07:07.649Z,145.10
2023-02-14T18:09:35.439Z,120.30
2023-02-14T18:12:04.113Z,124.10
2023-02-14T18:14:32.430Z,103.30
2023-02-14T18:17:00.370Z,146.90
2023-02-14T18:19:29.478Z,80.00
2023-02-14T18:21:58.106Z,93.30
2023-02-14T18:24:26.210Z,76.00
2023-02-14T18:26:55.486Z,89.00
2023-02-14T18:29:40.750Z,102.10
2023-02-14T18:32:09.311Z,87.70
2023-02-14T18:34:38.190Z,88.90
2023-02-14T18:37:06.198Z,68.10
2023-02-14T18:39:34.176Z,71.00
2023-02-14T18:42:02.468Z,59.90
2023-02-14T18:44:31.736Z,62.80
2023-02-14T18:47:01.221Z,61.80
2023-02-14T18:49:29.146Z,67.50
2023-02-14T18:51:58.978Z,61.30
2023-02-14T18:54:27.777Z,65.40
2023-02-14T18:56:56.358Z,51.20
2023-02-14T18:59:24.498Z,65.00
2023-02-14T19:01:52.726Z,54.30
2023-02-14T19:04:20.598Z,59.30
2023-02-14T19:06:49.505Z,59.10
2023-02-14T19:09:18.825Z,51.10
2023-02-14T19:11:47.594Z,57.00
2023-02-14T19:14:18.165Z,48.60
2023-02-14T19:16:53.613Z,50.20
2023-02-14T19:19:22.957Z,51.40
2023-02-14T19:21:51.981Z,47.80
2023-02-14T19:24:20.428Z,45.80
2023-02-14T19:26:48.594Z,55.40
2023-02-14T19:29:19.586Z,47.70
2023-02-14T19:31:49.924Z,45.70
2023-02-14T19:34:28.884Z,54.20
2023-02-14T19:37:00.523Z,49.00
2023-02-14T19:39:30.329Z,50.70
2023-02-14T19:41:59.247Z,53.90
2023-02-14T19:44:29.452Z,57.00
2023-02-14T19:47:00.306Z,54.90
2023-02-14T19:49:29.343Z,51.60
2023-02-14T19:51:58.930Z,52.40
2023-02-14T19:54:27.314Z,50.10
2023-02-14T19:56:56.486Z,56.20
2023-02-14T19:59:24.424Z,45.70
2023-02-14T20:01:53.844Z,48.70
2023-02-14T20:04:25.145Z,51.50
2023-02-14T20:06:54.399Z,53.20
2023-02-14T20:09:23.913Z,53.90
2023-02-14T20:11:56.407Z,58.00
2023-02-14T20:14:26.908Z,58.80
2023-02-14T20:16:57.215Z,58.90
2023-02-14T20:19:27.917Z,61.80
2023-02-14T20:21:56.429Z,58.10
2023-02-14T20:24:27.209Z,45.30
2023-02-14T20:26:55.829Z,51.10
2023-02-14T20:29:26.587Z,50.70
2023-02-14T20:32:01.669Z,164.50
2023-02-14T20:34:30.011Z,84.60
2023-02-14T20:36:59.332Z,120.30
2023-02-14T20:39:36.311Z,58.10
2023-02-14T20:42:05.462Z,55.10
2023-02-14T20:44:33.961Z,70.20
2023-02-14T20:47:01.860Z,56.40
2023-02-14T20:49:33.231Z,48.20
2023-02-14T20:52:01.486Z,50.20
2023-02-14T20:54:30.545Z,58.50
2023-02-14T20:56:59.039Z,68.60
2023-02-14T20:59:27.394Z,65.20
2023-02-14T21:01:57.049Z,98.20
2023-02-14T21:04:25.737Z,53.20
2023-02-14T21:06:54.047Z,59.60
2023-02-14T21:09:22.474Z,68.00
2023-02-14T21:11:53.104Z,66.60
2023-02-14T21:14:21.430Z,60.50
2023-02-14T21:16:49.469Z,58.30
2023-02-14T21:19:17.775Z,54.20
2023-02-14T21:21:46.110Z,60.40
2023-02-14T21:24:15.810Z,51.70
2023-02-14T21:26:44.381Z,77.50
2023-02-14T21:29:12.178Z,98.40
2023-02-14T21:31:40.062Z,73.40
2023-02-14T21:34:08.422Z,66.10
2023-02-14T21:36:36.715Z,51.50
2023-02-14T21:39:06.655Z,51.40
2023-02-14T21:41:36.954Z,53.30
2023-02-14T21:44:05.701Z,55.00
2023-02-14T21:46:38.614Z,53.50
2023-02-14T21:49:25.911Z,64.00
2023-02-14T21:51:54.562Z,55.80
2023-02-14T21:54:22.497Z,45.60
2023-02-14T21:56:50.298Z,51.20
2023-02-14T21:59:18.712Z,45.60
2023-02-14T22:01:46.607Z,62.40
2023-02-14T22:04:14.708Z,65.80
2023-02-14T22:06:43.238Z,64.20
2023-02-14T22:09:13.879Z,62.40
2023-02-14T22:11:42.110Z,53.30
2023-02-14T22:14:10.392Z,56.90
2023-02-14T22:16:38.279Z,50.80
2023-02-14T22:19:07.637Z,43.60
2023-02-14T22:21:36.024Z,45.50
2023-02-14T22:24:04.185Z,50.20
2023-02-14T22:26:35.546Z,50.10
2023-02-14T22:29:03.944Z,45.20
2023-02-14T22:31:40.551Z,48.00
2023-02-14T22:34:10.447Z,47.00
2023-02-14T22:36:40.530Z,46.80
2023-02-14T22:39:09.603Z,51.50
2023-02-14T22:41:38.111Z,61.50
2023-02-14T22:44:06.551Z,59.70
2023-02-14T22:46:38.390Z,58.70
2023-02-14T22:49:06.988Z,52.20
2023-02-14T22:51:37.680Z,46.90
2023-02-14T22:54:09.007Z,59.40
2023-02-14T22:56:40.467Z,65.70
2023-02-14T22:59:14.698Z,63.10
2023-02-14T23:01:42.626Z,57.50
2023-02-14T23:04:10.406Z,55.50
2023-02-14T23:06:39.149Z,66.20
2023-02-14T23:09:08.505Z,56.80
2023-02-14T23:11:38.413Z,64.30
2023-02-14T23:14:25.550Z,63.20
2023-02-14T23:17:11.887Z,62.30
2023-02-14T23:19:59.103Z,61.60
2023-02-14T23:22:29.865Z,60.80
2023-02-14T23:25:00.130Z,57.60
2023-02-14T23:27:37.353Z,56.90
2023-02-14T23:30:07.849Z,51.70
2023-02-14T23:32:36.136Z,53.10
2023-02-14T23:35:04.160Z,52.70
2023-02-14T23:37:32.016Z,54.50
2023-02-14T23:39:59.832Z,57.10
2023-02-14T23:42:28.381Z,59.40
2023-02-14T23:45:16.184Z,87.30
2023-02-14T23:47:44.023Z,70.50
2023-02-14T23:50:11.796Z,83.30
2023-02-14T23:52:41.979Z,71.10
2023-02-14T23:55:11.338Z,75.80
2023-02-14T23:57:39.620Z,66.10
